sensor_id;sensor_type;location;lat;lon;timestamp;temperature;humidity
16285;DHT22;8250;52.426;9.450;2022-08-04T00:00:05;23.70;99.90
16285;DHT22;8250;52.426;9.450;2022-08-04T00:02:43;23.70;99.90
16285;DHT22;8250;52.426;9.450;2022-08-04T00:05:18;23.60;99.90
16285;DHT22;8250;52.426;9.450;2022-08-04T00:07:56;23.50;99.90
16285;DHT22;8250;52.426;9.450;2022-08-04T00:10:28;23.50;99.90
16285;DHT22;8250;52.426;9.450;2022-08-04T00:13:02;23.40;99.90
16285;DHT22;8250;52.426;9.450;2022-08-04T00:15:31;23.30;99.90
16285;DHT22;8250;52.426;9.450;2022-08-04T00:18:00;23.30;99.90
16285;DHT22;8250;52.426;9.450;2022-08-04T00:20:31;23.20;99.90
16285;DHT22;8250;52.426;9.450;2022-08-04T00:22:59;23.20;99.90
16285;DHT22;8250;52.426;9.450;2022-08-04T00:25:27;23.10;99.90
16285;DHT22;8250;52.426;9.450;2022-08-04T00:27:55;23.00;99.90
16285;DHT22;8250;52.426;9.450;2022-08-04T00:30:23;23.00;99.90
16285;DHT22;8250;52.426;9.450;2022-08-04T00:32:51;22.90;99.90
16285;DHT22;8250;52.426;9.450;2022-08-04T00:35:18;22.90;99.90
16285;DHT22;8250;52.426;9.450;2022-08-04T00:37:45;22.90;99.90
16285;DHT22;8250;52.426;9.450;2022-08-04T00:40:23;22.80;99.90
16285;DHT22;8250;52.426;9.450;2022-08-04T00:42:59;22.80;99.90
16285;DHT22;8250;52.426;9.450;2022-08-04T00:45:48;22.70;99.90
16285;DHT22;8250;52.426;9.450;2022-08-04T00:48:36;22.70;99.90
16285;DHT22;8250;52.426;9.450;2022-08-04T00:51:14;22.70;99.90
16285;DHT22;8250;52.426;9.450;2022-08-04T00:53:56;22.70;99.90
16285;DHT22;8250;52.426;9.450;2022-08-04T00:56:48;22.60;99.90
16285;DHT22;8250;52.426;9.450;2022-08-04T00:59:41;22.60;99.90
16285;DHT22;8250;52.426;9.450;2022-08-04T01:02:19;22.60;99.90
16285;DHT22;8250;52.426;9.450;2022-08-04T01:05:04;22.50;99.90
16285;DHT22;8250;52.426;9.450;2022-08-04T01:10:32;22.40;99.90
16285;DHT22;8250;52.426;9.450;2022-08-04T01:16:04;22.30;99.90
16285;DHT22;8250;52.426;9.450;2022-08-04T01:18:45;22.20;99.90
16285;DHT22;8250;52.426;9.450;2022-08-04T01:21:42;22.20;99.90
16285;DHT22;8250;52.426;9.450;2022-08-04T01:24:25;22.20;99.90
16285;DHT22;8250;52.426;9.450;2022-08-04T01:27:01;22.20;99.90
16285;DHT22;8250;52.426;9.450;2022-08-04T01:29:34;22.10;99.90
16285;DHT22;8250;52.426;9.450;2022-08-04T01:32:04;22.10;99.90
16285;DHT22;8250;52.426;9.450;2022-08-04T01:34:36;22.00;99.90
16285;DHT22;8250;52.426;9.450;2022-08-04T01:37:18;22.00;99.90
16285;DHT22;8250;52.426;9.450;2022-08-04T01:39:50;21.90;99.90
16285;DHT22;8250;52.426;9.450;2022-08-04T01:42:19;22.00;99.90
16285;DHT22;8250;52.426;9.450;2022-08-04T01:44:49;21.90;99.90
16285;DHT22;8250;52.426;9.450;2022-08-04T01:47:19;21.90;99.90
16285;DHT22;8250;52.426;9.450;2022-08-04T01:49:49;21.90;99.90
16285;DHT22;8250;52.426;9.450;2022-08-04T01:52:17;21.90;99.90
16285;DHT22;8250;52.426;9.450;2022-08-04T01:54:45;21.90;99.90
16285;DHT22;8250;52.426;9.450;2022-08-04T01:57:16;21.90;99.90
16285;DHT22;8250;52.426;9.450;2022-08-04T01:59:45;21.90;99.90
16285;DHT22;8250;52.426;9.450;2022-08-04T02:02:14;21.90;99.90
16285;DHT22;8250;52.426;9.450;2022-08-04T02:04:41;21.90;99.90
16285;DHT22;8250;52.426;9.450;2022-08-04T02:07:27;21.90;99.90
16285;DHT22;8250;52.426;9.450;2022-08-04T02:10:04;21.90;99.90
16285;DHT22;8250;52.426;9.450;2022-08-04T02:12:51;21.90;99.90
16285;DHT22;8250;52.426;9.450;2022-08-04T02:15:25;21.80;99.90
16285;DHT22;8250;52.426;9.450;2022-08-04T02:17:59;21.80;99.90
16285;DHT22;8250;52.426;9.450;2022-08-04T02:20:29;21.90;99.90
16285;DHT22;8250;52.426;9.450;2022-08-04T02:23:00;21.80;99.90
16285;DHT22;8250;52.426;9.450;2022-08-04T02:25:28;21.90;99.90
16285;DHT22;8250;52.426;9.450;2022-08-04T02:28:15;21.90;99.90
16285;DHT22;8250;52.426;9.450;2022-08-04T02:30:53;21.90;99.90
16285;DHT22;8250;52.426;9.450;2022-08-04T02:33:30;21.90;99.90
16285;DHT22;8250;52.426;9.450;2022-08-04T02:36:03;21.90;99.90
16285;DHT22;8250;52.426;9.450;2022-08-04T02:38:41;22.00;99.90
16285;DHT22;8250;52.426;9.450;2022-08-04T02:41:15;22.00;99.90
16285;DHT22;8250;52.426;9.450;2022-08-04T02:43:43;22.00;99.90
16285;DHT22;8250;52.426;9.450;2022-08-04T02:46:13;22.00;99.90
16285;DHT22;8250;52.426;9.450;2022-08-04T02:48:42;21.90;99.90
16285;DHT22;8250;52.426;9.450;2022-08-04T02:51:12;21.90;99.90
16285;DHT22;8250;52.426;9.450;2022-08-04T02:53:41;21.90;99.90
16285;DHT22;8250;52.426;9.450;2022-08-04T02:56:10;21.90;99.90
16285;DHT22;8250;52.426;9.450;2022-08-04T02:58:41;21.90;99.90
16285;DHT22;8250;52.426;9.450;2022-08-04T03:01:12;21.90;99.90
16285;DHT22;8250;52.426;9.450;2022-08-04T03:03:44;21.90;99.90
16285;DHT22;8250;52.426;9.450;2022-08-04T03:06:39;21.90;99.90
16285;DHT22;8250;52.426;9.450;2022-08-04T03:09:36;21.90;99.90
16285;DHT22;8250;52.426;9.450;2022-08-04T03:12:26;21.80;99.90
16285;DHT22;8250;52.426;9.450;2022-08-04T03:15:22;21.80;99.90
16285;DHT22;8250;52.426;9.450;2022-08-04T03:18:14;21.80;99.90
16285;DHT22;8250;52.426;9.450;2022-08-04T03:21:16;21.80;99.90
16285;DHT22;8250;52.426;9.450;2022-08-04T03:24:21;21.70;99.90
16285;DHT22;8250;52.426;9.450;2022-08-04T03:30:03;21.70;99.90
16285;DHT22;8250;52.426;9.450;2022-08-04T03:41:38;21.70;99.90
16285;DHT22;8250;52.426;9.450;2022-08-04T03:47:49;21.60;99.90
16285;DHT22;8250;52.426;9.450;2022-08-04T03:50:45;21.60;99.90
16285;DHT22;8250;52.426;9.450;2022-08-04T03:53:45;21.60;99.90
16285;DHT22;8250;52.426;9.450;2022-08-04T03:56:41;21.60;99.90
16285;DHT22;8250;52.426;9.450;2022-08-04T03:59:32;21.50;99.90
16285;DHT22;8250;52.426;9.450;2022-08-04T04:02:32;21.60;99.90
16285;DHT22;8250;52.426;9.450;2022-08-04T04:08:33;21.60;99.90
16285;DHT22;8250;52.426;9.450;2022-08-04T04:11:28;21.60;99.90
16285;DHT22;8250;52.426;9.450;2022-08-04T04:17:07;21.60;99.90
16285;DHT22;8250;52.426;9.450;2022-08-04T04:19:54;21.60;99.90
16285;DHT22;8250;52.426;9.450;2022-08-04T04:22:43;21.60;99.90
16285;DHT22;8250;52.426;9.450;2022-08-04T04:25:34;21.60;99.90
16285;DHT22;8250;52.426;9.450;2022-08-04T04:28:25;21.60;99.90
16285;DHT22;8250;52.426;9.450;2022-08-04T04:31:02;21.60;99.90
16285;DHT22;8250;52.426;9.450;2022-08-04T04:33:43;21.60;99.90
16285;DHT22;8250;52.426;9.450;2022-08-04T04:36:22;21.70;99.90
16285;DHT22;8250;52.426;9.450;2022-08-04T04:39:00;21.70;99.90
16285;DHT22;8250;52.426;9.450;2022-08-04T04:41:38;21.70;99.90
16285;DHT22;8250;52.426;9.450;2022-08-04T04:44:39;21.80;99.90
16285;DHT22;8250;52.426;9.450;2022-08-04T04:47:13;21.80;99.90
16285;DHT22;8250;52.426;9.450;2022-08-04T04:49:47;21.90;99.90
16285;DHT22;8250;52.426;9.450;2022-08-04T04:52:21;21.90;99.90
16285;DHT22;8250;52.426;9.450;2022-08-04T04:54:54;22.00;99.90
16285;DHT22;8250;52.426;9.450;2022-08-04T04:57:27;22.00;99.90
16285;DHT22;8250;52.426;9.450;2022-08-04T05:00:02;22.10;99.90
16285;DHT22;8250;52.426;9.450;2022-08-04T05:02:47;22.10;99.90
16285;DHT22;8250;52.426;9.450;2022-08-04T05:05:59;22.10;99.90
16285;DHT22;8250;52.426;9.450;2022-08-04T05:09:04;22.20;99.90
16285;DHT22;8250;52.426;9.450;2022-08-04T05:11:51;22.20;99.90
16285;DHT22;8250;52.426;9.450;2022-08-04T05:14:24;22.20;99.90
16285;DHT22;8250;52.426;9.450;2022-08-04T05:17:08;22.20;99.90
16285;DHT22;8250;52.426;9.450;2022-08-04T05:19:48;22.20;99.90
16285;DHT22;8250;52.426;9.450;2022-08-04T05:22:21;22.20;99.90
16285;DHT22;8250;52.426;9.450;2022-08-04T05:24:56;22.30;99.90
16285;DHT22;8250;52.426;9.450;2022-08-04T05:27:28;22.40;99.90
16285;DHT22;8250;52.426;9.450;2022-08-04T05:30:01;22.40;99.90
16285;DHT22;8250;52.426;9.450;2022-08-04T05:32:35;22.50;99.90
16285;DHT22;8250;52.426;9.450;2022-08-04T05:35:08;22.70;99.90
16285;DHT22;8250;52.426;9.450;2022-08-04T05:37:37;22.80;99.90
16285;DHT22;8250;52.426;9.450;2022-08-04T05:40:07;22.90;99.90
16285;DHT22;8250;52.426;9.450;2022-08-04T05:42:37;23.00;99.90
16285;DHT22;8250;52.426;9.450;2022-08-04T05:45:06;23.10;99.90
16285;DHT22;8250;52.426;9.450;2022-08-04T05:47:36;23.20;99.90
16285;DHT22;8250;52.426;9.450;2022-08-04T05:50:05;23.30;99.90
16285;DHT22;8250;52.426;9.450;2022-08-04T05:52:34;23.50;99.90
16285;DHT22;8250;52.426;9.450;2022-08-04T05:55:02;23.50;99.90
16285;DHT22;8250;52.426;9.450;2022-08-04T05:57:30;23.70;99.90
16285;DHT22;8250;52.426;9.450;2022-08-04T05:59:59;23.80;99.90
16285;DHT22;8250;52.426;9.450;2022-08-04T06:02:27;24.10;99.90
16285;DHT22;8250;52.426;9.450;2022-08-04T06:04:58;24.30;99.90
16285;DHT22;8250;52.426;9.450;2022-08-04T06:07:26;24.40;99.90
16285;DHT22;8250;52.426;9.450;2022-08-04T06:09:53;24.50;99.90
16285;DHT22;8250;52.426;9.450;2022-08-04T06:12:24;24.60;99.90
16285;DHT22;8250;52.426;9.450;2022-08-04T06:14:53;24.60;99.90
16285;DHT22;8250;52.426;9.450;2022-08-04T06:17:23;24.70;99.90
16285;DHT22;8250;52.426;9.450;2022-08-04T06:19:52;24.80;99.90
16285;DHT22;8250;52.426;9.450;2022-08-04T06:22:22;24.90;99.90
16285;DHT22;8250;52.426;9.450;2022-08-04T06:24:50;25.00;99.90
16285;DHT22;8250;52.426;9.450;2022-08-04T06:27:20;25.00;99.90
16285;DHT22;8250;52.426;9.450;2022-08-04T06:29:47;25.00;99.90
16285;DHT22;8250;52.426;9.450;2022-08-04T06:32:16;25.20;99.90
16285;DHT22;8250;52.426;9.450;2022-08-04T06:34:54;25.40;99.90
16285;DHT22;8250;52.426;9.450;2022-08-04T06:37:24;25.60;99.90
16285;DHT22;8250;52.426;9.450;2022-08-04T06:39:52;25.60;99.90
16285;DHT22;8250;52.426;9.450;2022-08-04T06:42:21;25.60;99.90
16285;DHT22;8250;52.426;9.450;2022-08-04T06:44:49;25.60;99.90
16285;DHT22;8250;52.426;9.450;2022-08-04T06:47:17;25.70;99.90
16285;DHT22;8250;52.426;9.450;2022-08-04T06:49:52;25.70;99.90
16285;DHT22;8250;52.426;9.450;2022-08-04T06:52:20;25.60;99.90
16285;DHT22;8250;52.426;9.450;2022-08-04T06:54:51;25.60;99.90
16285;DHT22;8250;52.426;9.450;2022-08-04T06:57:21;25.50;99.90
16285;DHT22;8250;52.426;9.450;2022-08-04T06:59:53;25.50;99.90
16285;DHT22;8250;52.426;9.450;2022-08-04T07:02:33;25.60;99.90
16285;DHT22;8250;52.426;9.450;2022-08-04T07:05:03;25.70;99.90
16285;DHT22;8250;52.426;9.450;2022-08-04T07:07:31;25.80;99.90
16285;DHT22;8250;52.426;9.450;2022-08-04T07:10:01;25.90;99.90
16285;DHT22;8250;52.426;9.450;2022-08-04T07:12:30;25.90;99.90
16285;DHT22;8250;52.426;9.450;2022-08-04T07:14:58;26.10;99.90
16285;DHT22;8250;52.426;9.450;2022-08-04T07:17:27;26.30;99.90
16285;DHT22;8250;52.426;9.450;2022-08-04T07:19:55;26.40;99.90
16285;DHT22;8250;52.426;9.450;2022-08-04T07:22:23;26.50;99.90
16285;DHT22;8250;52.426;9.450;2022-08-04T07:24:53;26.70;99.90
16285;DHT22;8250;52.426;9.450;2022-08-04T07:27:22;26.70;99.90
16285;DHT22;8250;52.426;9.450;2022-08-04T07:29:49;26.90;99.90
16285;DHT22;8250;52.426;9.450;2022-08-04T07:32:18;26.90;99.90
16285;DHT22;8250;52.426;9.450;2022-08-04T07:34:48;27.00;99.90
16285;DHT22;8250;52.426;9.450;2022-08-04T07:37:16;27.00;99.90
16285;DHT22;8250;52.426;9.450;2022-08-04T07:39:43;27.00;99.90
16285;DHT22;8250;52.426;9.450;2022-08-04T07:42:10;27.10;99.90
16285;DHT22;8250;52.426;9.450;2022-08-04T07:44:38;27.00;99.90
16285;DHT22;8250;52.426;9.450;2022-08-04T07:47:06;27.10;99.90
16285;DHT22;8250;52.426;9.450;2022-08-04T07:49:34;27.30;99.90
16285;DHT22;8250;52.426;9.450;2022-08-04T07:52:02;27.40;99.90
16285;DHT22;8250;52.426;9.450;2022-08-04T07:54:29;27.50;99.90
16285;DHT22;8250;52.426;9.450;2022-08-04T07:56:56;27.60;99.90
16285;DHT22;8250;52.426;9.450;2022-08-04T07:59:23;27.70;99.90
16285;DHT22;8250;52.426;9.450;2022-08-04T08:01:52;27.80;99.90
16285;DHT22;8250;52.426;9.450;2022-08-04T08:04:20;28.00;99.90
16285;DHT22;8250;52.426;9.450;2022-08-04T08:06:48;28.10;99.90
16285;DHT22;8250;52.426;9.450;2022-08-04T08:09:18;28.20;99.90
16285;DHT22;8250;52.426;9.450;2022-08-04T08:11:48;28.30;99.90
16285;DHT22;8250;52.426;9.450;2022-08-04T08:14:16;28.30;99.90
16285;DHT22;8250;52.426;9.450;2022-08-04T08:16:43;28.40;99.90
16285;DHT22;8250;52.426;9.450;2022-08-04T08:19:12;28.50;99.90
16285;DHT22;8250;52.426;9.450;2022-08-04T08:21:40;28.60;99.90
16285;DHT22;8250;52.426;9.450;2022-08-04T08:24:07;28.70;99.20
16285;DHT22;8250;52.426;9.450;2022-08-04T08:26:36;28.80;99.20
16285;DHT22;8250;52.426;9.450;2022-08-04T08:29:03;28.90;98.60
16285;DHT22;8250;52.426;9.450;2022-08-04T08:31:30;29.00;98.10
16285;DHT22;8250;52.426;9.450;2022-08-04T08:33:58;29.10;97.20
16285;DHT22;8250;52.426;9.450;2022-08-04T08:36:31;29.30;96.50
16285;DHT22;8250;52.426;9.450;2022-08-04T08:39:02;29.40;97.30
16285;DHT22;8250;52.426;9.450;2022-08-04T08:41:50;29.50;96.30
16285;DHT22;8250;52.426;9.450;2022-08-04T08:44:46;29.60;95.30
16285;DHT22;8250;52.426;9.450;2022-08-04T08:47:32;29.70;95.00
16285;DHT22;8250;52.426;9.450;2022-08-04T08:53:15;30.00;93.90
16285;DHT22;8250;52.426;9.450;2022-08-04T08:56:00;30.10;93.00
16285;DHT22;8250;52.426;9.450;2022-08-04T08:58:34;30.10;92.60
16285;DHT22;8250;52.426;9.450;2022-08-04T09:01:11;30.30;91.20
16285;DHT22;8250;52.426;9.450;2022-08-04T09:04:15;30.40;90.90
16285;DHT22;8250;52.426;9.450;2022-08-04T09:07:18;30.40;91.60
16285;DHT22;8250;52.426;9.450;2022-08-04T09:09:57;30.50;90.70
16285;DHT22;8250;52.426;9.450;2022-08-04T09:12:35;30.60;90.10
16285;DHT22;8250;52.426;9.450;2022-08-04T09:15:06;30.80;86.60
16285;DHT22;8250;52.426;9.450;2022-08-04T09:17:39;30.80;84.40
16285;DHT22;8250;52.426;9.450;2022-08-04T09:20:12;30.90;82.70
16285;DHT22;8250;52.426;9.450;2022-08-04T09:22:47;30.90;82.60
16285;DHT22;8250;52.426;9.450;2022-08-04T09:25:21;31.00;81.90
16285;DHT22;8250;52.426;9.450;2022-08-04T09:27:52;31.00;82.00
16285;DHT22;8250;52.426;9.450;2022-08-04T09:30:25;31.00;81.30
16285;DHT22;8250;52.426;9.450;2022-08-04T09:33:03;31.00;81.70
16285;DHT22;8250;52.426;9.450;2022-08-04T09:35:39;31.10;80.80
16285;DHT22;8250;52.426;9.450;2022-08-04T09:38:14;31.10;80.30
16285;DHT22;8250;52.426;9.450;2022-08-04T09:40:48;31.20;78.40
16285;DHT22;8250;52.426;9.450;2022-08-04T09:43:27;31.30;79.00
16285;DHT22;8250;52.426;9.450;2022-08-04T09:46:01;31.30;78.50
16285;DHT22;8250;52.426;9.450;2022-08-04T09:48:43;31.30;76.90
16285;DHT22;8250;52.426;9.450;2022-08-04T09:51:19;31.30;77.30
16285;DHT22;8250;52.426;9.450;2022-08-04T09:53:56;31.30;77.30
16285;DHT22;8250;52.426;9.450;2022-08-04T09:56:34;31.50;77.40
16285;DHT22;8250;52.426;9.450;2022-08-04T09:59:11;31.40;77.10
16285;DHT22;8250;52.426;9.450;2022-08-04T10:01:44;31.50;77.50
16285;DHT22;8250;52.426;9.450;2022-08-04T10:04:13;31.50;78.80
16285;DHT22;8250;52.426;9.450;2022-08-04T10:07:10;31.70;75.90
16285;DHT22;8250;52.426;9.450;2022-08-04T10:09:51;31.70;78.40
16285;DHT22;8250;52.426;9.450;2022-08-04T10:12:40;31.70;74.70
16285;DHT22;8250;52.426;9.450;2022-08-04T10:15:13;31.70;73.90
16285;DHT22;8250;52.426;9.450;2022-08-04T10:17:57;31.80;75.00
16285;DHT22;8250;52.426;9.450;2022-08-04T10:20:53;31.80;73.80
16285;DHT22;8250;52.426;9.450;2022-08-04T10:23:32;31.80;75.70
16285;DHT22;8250;52.426;9.450;2022-08-04T10:26:13;31.80;75.20
16285;DHT22;8250;52.426;9.450;2022-08-04T10:28:50;31.90;74.80
16285;DHT22;8250;52.426;9.450;2022-08-04T10:31:23;32.00;73.70
16285;DHT22;8250;52.426;9.450;2022-08-04T10:33:57;32.00;72.30
16285;DHT22;8250;52.426;9.450;2022-08-04T10:36:29;32.10;73.20
16285;DHT22;8250;52.426;9.450;2022-08-04T10:39:04;32.20;71.30
16285;DHT22;8250;52.426;9.450;2022-08-04T10:41:39;32.30;71.80
16285;DHT22;8250;52.426;9.450;2022-08-04T10:44:19;32.40;71.50
16285;DHT22;8250;52.426;9.450;2022-08-04T10:46:51;32.40;71.80
16285;DHT22;8250;52.426;9.450;2022-08-04T10:49:27;32.40;70.70
16285;DHT22;8250;52.426;9.450;2022-08-04T10:52:04;32.40;68.80
16285;DHT22;8250;52.426;9.450;2022-08-04T10:54:40;32.50;69.30
16285;DHT22;8250;52.426;9.450;2022-08-04T10:57:14;32.60;68.40
16285;DHT22;8250;52.426;9.450;2022-08-04T10:59:48;32.50;68.80
16285;DHT22;8250;52.426;9.450;2022-08-04T11:02:29;32.50;68.20
16285;DHT22;8250;52.426;9.450;2022-08-04T11:05:04;32.50;69.70
16285;DHT22;8250;52.426;9.450;2022-08-04T11:07:38;32.50;68.70
16285;DHT22;8250;52.426;9.450;2022-08-04T11:10:08;32.50;68.50
16285;DHT22;8250;52.426;9.450;2022-08-04T11:12:37;32.50;69.20
16285;DHT22;8250;52.426;9.450;2022-08-04T11:15:10;32.60;68.90
16285;DHT22;8250;52.426;9.450;2022-08-04T11:17:41;32.70;67.60
16285;DHT22;8250;52.426;9.450;2022-08-04T11:20:15;32.70;67.80
16285;DHT22;8250;52.426;9.450;2022-08-04T11:22:49;32.80;69.00
16285;DHT22;8250;52.426;9.450;2022-08-04T11:25:19;32.90;69.30
16285;DHT22;8250;52.426;9.450;2022-08-04T11:27:54;33.00;68.30
16285;DHT22;8250;52.426;9.450;2022-08-04T11:30:33;33.30;68.80
16285;DHT22;8250;52.426;9.450;2022-08-04T11:33:08;33.80;66.80
16285;DHT22;8250;52.426;9.450;2022-08-04T11:35:41;34.60;65.90
16285;DHT22;8250;52.426;9.450;2022-08-04T11:38:14;35.40;63.90
16285;DHT22;8250;52.426;9.450;2022-08-04T11:40:48;36.00;62.00
16285;DHT22;8250;52.426;9.450;2022-08-04T11:43:21;36.70;60.10
16285;DHT22;8250;52.426;9.450;2022-08-04T11:45:54;37.00;59.00
16285;DHT22;8250;52.426;9.450;2022-08-04T11:48:28;37.20;59.20
16285;DHT22;8250;52.426;9.450;2022-08-04T11:50:59;37.20;58.30
16285;DHT22;8250;52.426;9.450;2022-08-04T11:53:31;36.90;57.40
16285;DHT22;8250;52.426;9.450;2022-08-04T11:56:03;36.50;58.10
16285;DHT22;8250;52.426;9.450;2022-08-04T11:58:30;36.30;59.20
16285;DHT22;8250;52.426;9.450;2022-08-04T12:01:05;36.10;58.50
16285;DHT22;8250;52.426;9.450;2022-08-04T12:03:43;35.80;58.10
16285;DHT22;8250;52.426;9.450;2022-08-04T12:06:16;35.40;58.80
16285;DHT22;8250;52.426;9.450;2022-08-04T12:09:02;35.10;57.70
16285;DHT22;8250;52.426;9.450;2022-08-04T12:11:48;34.70;57.00
16285;DHT22;8250;52.426;9.450;2022-08-04T12:14:26;34.40;58.70
16285;DHT22;8250;52.426;9.450;2022-08-04T12:16:58;34.30;59.80
16285;DHT22;8250;52.426;9.450;2022-08-04T12:19:30;34.20;59.20
16285;DHT22;8250;52.426;9.450;2022-08-04T12:22:02;34.10;59.80
16285;DHT22;8250;52.426;9.450;2022-08-04T12:24:33;34.00;60.70
16285;DHT22;8250;52.426;9.450;2022-08-04T12:27:06;33.90;60.40
16285;DHT22;8250;52.426;9.450;2022-08-04T12:29:39;33.80;61.30
16285;DHT22;8250;52.426;9.450;2022-08-04T12:32:17;33.80;60.80
16285;DHT22;8250;52.426;9.450;2022-08-04T12:34:52;33.80;60.60
16285;DHT22;8250;52.426;9.450;2022-08-04T12:37:28;33.70;59.70
16285;DHT22;8250;52.426;9.450;2022-08-04T12:40:02;33.70;60.10
16285;DHT22;8250;52.426;9.450;2022-08-04T12:42:39;33.70;60.90
16285;DHT22;8250;52.426;9.450;2022-08-04T12:45:08;33.90;58.80
16285;DHT22;8250;52.426;9.450;2022-08-04T12:47:39;34.00;57.90
16285;DHT22;8250;52.426;9.450;2022-08-04T12:50:08;34.10;58.30
16285;DHT22;8250;52.426;9.450;2022-08-04T12:52:41;34.30;57.20
16285;DHT22;8250;52.426;9.450;2022-08-04T12:55:10;34.40;56.80
16285;DHT22;8250;52.426;9.450;2022-08-04T12:57:38;34.30;56.50
16285;DHT22;8250;52.426;9.450;2022-08-04T13:00:07;34.40;58.00
16285;DHT22;8250;52.426;9.450;2022-08-04T13:02:40;34.40;57.80
16285;DHT22;8250;52.426;9.450;2022-08-04T13:05:10;34.40;57.00
16285;DHT22;8250;52.426;9.450;2022-08-04T13:07:42;34.30;56.90
16285;DHT22;8250;52.426;9.450;2022-08-04T13:10:11;34.40;57.80
16285;DHT22;8250;52.426;9.450;2022-08-04T13:12:39;34.30;57.10
16285;DHT22;8250;52.426;9.450;2022-08-04T13:15:11;34.20;57.60
16285;DHT22;8250;52.426;9.450;2022-08-04T13:17:49;34.10;58.00
16285;DHT22;8250;52.426;9.450;2022-08-04T13:20:24;34.10;58.60
16285;DHT22;8250;52.426;9.450;2022-08-04T13:22:56;34.20;58.10
16285;DHT22;8250;52.426;9.450;2022-08-04T13:25:27;34.10;57.30
16285;DHT22;8250;52.426;9.450;2022-08-04T13:27:55;34.20;57.70
16285;DHT22;8250;52.426;9.450;2022-08-04T13:30:23;34.20;58.00
16285;DHT22;8250;52.426;9.450;2022-08-04T13:32:55;34.20;57.30
16285;DHT22;8250;52.426;9.450;2022-08-04T13:35:24;34.20;56.90
16285;DHT22;8250;52.426;9.450;2022-08-04T13:37:53;34.20;57.30
16285;DHT22;8250;52.426;9.450;2022-08-04T13:40:22;34.20;57.60
16285;DHT22;8250;52.426;9.450;2022-08-04T13:42:52;34.10;57.50
16285;DHT22;8250;52.426;9.450;2022-08-04T13:45:21;34.20;57.30
16285;DHT22;8250;52.426;9.450;2022-08-04T13:47:50;34.30;57.10
16285;DHT22;8250;52.426;9.450;2022-08-04T13:50:20;34.30;56.80
16285;DHT22;8250;52.426;9.450;2022-08-04T13:52:51;34.30;56.90
16285;DHT22;8250;52.426;9.450;2022-08-04T13:55:23;34.30;57.10
16285;DHT22;8250;52.426;9.450;2022-08-04T13:57:55;34.20;57.00
16285;DHT22;8250;52.426;9.450;2022-08-04T14:00:25;34.20;57.00
16285;DHT22;8250;52.426;9.450;2022-08-04T14:03:05;34.10;56.70
16285;DHT22;8250;52.426;9.450;2022-08-04T14:05:34;34.20;56.90
16285;DHT22;8250;52.426;9.450;2022-08-04T14:08:06;34.20;56.90
16285;DHT22;8250;52.426;9.450;2022-08-04T14:10:34;34.20;56.80
16285;DHT22;8250;52.426;9.450;2022-08-04T14:13:04;34.20;56.10
16285;DHT22;8250;52.426;9.450;2022-08-04T14:15:36;34.20;56.80
16285;DHT22;8250;52.426;9.450;2022-08-04T14:18:18;34.30;55.70
16285;DHT22;8250;52.426;9.450;2022-08-04T14:21:16;34.40;56.50
16285;DHT22;8250;52.426;9.450;2022-08-04T14:23:46;34.30;55.80
16285;DHT22;8250;52.426;9.450;2022-08-04T14:26:23;34.30;55.90
16285;DHT22;8250;52.426;9.450;2022-08-04T14:28:51;34.20;56.20
16285;DHT22;8250;52.426;9.450;2022-08-04T14:31:19;34.20;55.90
16285;DHT22;8250;52.426;9.450;2022-08-04T14:33:50;34.10;56.30
16285;DHT22;8250;52.426;9.450;2022-08-04T14:36:19;34.10;57.00
16285;DHT22;8250;52.426;9.450;2022-08-04T14:38:51;34.10;56.70
16285;DHT22;8250;52.426;9.450;2022-08-04T14:41:21;34.20;56.80
16285;DHT22;8250;52.426;9.450;2022-08-04T14:43:49;34.20;56.40
16285;DHT22;8250;52.426;9.450;2022-08-04T14:46:17;34.20;55.70
16285;DHT22;8250;52.426;9.450;2022-08-04T14:49:05;34.10;55.30
16285;DHT22;8250;52.426;9.450;2022-08-04T14:51:42;34.20;55.20
16285;DHT22;8250;52.426;9.450;2022-08-04T14:54:12;34.00;55.50
16285;DHT22;8250;52.426;9.450;2022-08-04T14:56:40;33.90;55.60
16285;DHT22;8250;52.426;9.450;2022-08-04T14:59:09;34.00;55.30
16285;DHT22;8250;52.426;9.450;2022-08-04T15:01:37;33.90;55.40
16285;DHT22;8250;52.426;9.450;2022-08-04T15:04:05;33.80;55.10
16285;DHT22;8250;52.426;9.450;2022-08-04T15:06:33;33.80;54.70
16285;DHT22;8250;52.426;9.450;2022-08-04T15:09:04;33.70;58.10
16285;DHT22;8250;52.426;9.450;2022-08-04T15:11:33;33.40;59.10
16285;DHT22;8250;52.426;9.450;2022-08-04T15:14:00;33.20;58.60
16285;DHT22;8250;52.426;9.450;2022-08-04T15:16:30;32.90;65.20
16285;DHT22;8250;52.426;9.450;2022-08-04T15:18:58;32.60;70.60
16285;DHT22;8250;52.426;9.450;2022-08-04T15:21:27;32.10;75.60
16285;DHT22;8250;52.426;9.450;2022-08-04T15:23:54;31.60;77.40
16285;DHT22;8250;52.426;9.450;2022-08-04T15:26:29;31.10;80.20
16285;DHT22;8250;52.426;9.450;2022-08-04T15:29:05;30.70;81.70
16285;DHT22;8250;52.426;9.450;2022-08-04T15:31:37;30.40;84.90
16285;DHT22;8250;52.426;9.450;2022-08-04T15:34:06;29.90;86.20
16285;DHT22;8250;52.426;9.450;2022-08-04T15:36:51;29.60;89.80
16285;DHT22;8250;52.426;9.450;2022-08-04T15:39:27;29.40;90.70
16285;DHT22;8250;52.426;9.450;2022-08-04T15:42:08;29.30;91.10
16285;DHT22;8250;52.426;9.450;2022-08-04T15:44:54;29.20;92.00
16285;DHT22;8250;52.426;9.450;2022-08-04T15:47:24;29.10;92.80
16285;DHT22;8250;52.426;9.450;2022-08-04T15:50:03;28.90;93.70
16285;DHT22;8250;52.426;9.450;2022-08-04T15:52:59;28.90;93.30
16285;DHT22;8250;52.426;9.450;2022-08-04T15:55:30;28.90;92.70
16285;DHT22;8250;52.426;9.450;2022-08-04T15:58:00;28.80;93.30
16285;DHT22;8250;52.426;9.450;2022-08-04T16:00:29;28.70;94.60
16285;DHT22;8250;52.426;9.450;2022-08-04T16:03:42;28.50;94.60
16285;DHT22;8250;52.426;9.450;2022-08-04T16:06:40;28.50;95.00
16285;DHT22;8250;52.426;9.450;2022-08-04T16:09:08;28.40;95.40
16285;DHT22;8250;52.426;9.450;2022-08-04T16:11:45;28.30;95.50
16285;DHT22;8250;52.426;9.450;2022-08-04T16:14:14;28.20;96.00
16285;DHT22;8250;52.426;9.450;2022-08-04T16:16:48;28.10;96.30
16285;DHT22;8250;52.426;9.450;2022-08-04T16:19:24;28.00;96.20
16285;DHT22;8250;52.426;9.450;2022-08-04T16:21:55;28.00;95.60
16285;DHT22;8250;52.426;9.450;2022-08-04T16:24:27;27.90;95.90
16285;DHT22;8250;52.426;9.450;2022-08-04T16:26:56;27.90;96.00
16285;DHT22;8250;52.426;9.450;2022-08-04T16:29:41;27.80;96.30
16285;DHT22;8250;52.426;9.450;2022-08-04T16:32:13;27.70;95.90
16285;DHT22;8250;52.426;9.450;2022-08-04T16:34:42;27.70;96.80
16285;DHT22;8250;52.426;9.450;2022-08-04T16:37:10;27.70;96.50
16285;DHT22;8250;52.426;9.450;2022-08-04T16:39:38;27.60;96.50
16285;DHT22;8250;52.426;9.450;2022-08-04T16:42:28;27.60;96.40
16285;DHT22;8250;52.426;9.450;2022-08-04T16:45:05;27.60;96.80
16285;DHT22;8250;52.426;9.450;2022-08-04T16:48:01;27.50;96.40
16285;DHT22;8250;52.426;9.450;2022-08-04T16:50:32;27.50;96.80
16285;DHT22;8250;52.426;9.450;2022-08-04T16:53:09;27.50;96.70
16285;DHT22;8250;52.426;9.450;2022-08-04T16:55:37;27.50;96.70
16285;DHT22;8250;52.426;9.450;2022-08-04T16:58:04;27.50;96.60
16285;DHT22;8250;52.426;9.450;2022-08-04T17:00:34;27.50;96.80
16285;DHT22;8250;52.426;9.450;2022-08-04T17:03:02;27.50;96.70